This is the latest recevied weather packets stored in our database for station/object KD0SBN. If no packets are shown the sender has not sent any weather packets the latest 10 day(s).
| Time | Temp. | Humidity | Pressure | Rain* | Wind** | Luminosity | Snow |
|---|---|---|---|---|---|---|---|
| 1777800067 | 7.78° C | 57% | 1017.2 hPa | 0 mm | - | - | - |
| 1777799762 | 7.22° C | 58% | 1017.1 hPa | 0 mm | - | - | - |
| 1777799460 | 6.67° C | 62% | 1017 hPa | 0 mm | - | - | - |
| 1777799155 | 6.67° C | 61% | 1017.1 hPa | 0 mm | - | - | - |
| 1777798851 | 7.22° C | 60% | 1017 hPa | 0 mm | - | - | - |
| 1777798547 | 7.78° C | 57% | 1017 hPa | 0 mm | - | - | - |
| 1777798245 | 8.89° C | 53% | 1017 hPa | 0 mm | - | - | - |
| 1777797941 | 9.44° C | 51% | 1017.1 hPa | 0 mm | - | - | - |
| 1777797639 | 9.44° C | 49% | 1017.2 hPa | 0 mm | - | - | - |
| 1777797336 | 8.33° C | 53% | 1017.1 hPa | 0 mm | - | - | - |
| 1777797033 | 8.33° C | 53% | 1017.1 hPa | 0 mm | - | - | - |
| 1777796730 | 8.33° C | 54% | 1017.2 hPa | 0 mm | - | - | - |
| 1777796427 | 8.89° C | 54% | 1017.2 hPa | 0 mm | - | - | - |
| 1777796121 | 9.44° C | 51% | 1017.2 hPa | 0 mm | - | - | - |
| 1777795819 | 9.44° C | 50% | 1017.3 hPa | 0 mm | - | - | - |
| 1777795514 | 9.44° C | 48% | 1017.3 hPa | 0 mm | - | - | - |
| 1777795212 | 9.44° C | 49% | 1017.1 hPa | 0 mm | - | - | - |
| 1777794908 | 9.44° C | 50% | 1017.3 hPa | 0 mm | - | - | - |
| 1777794605 | 9.44° C | 52% | 1017.5 hPa | 0 mm | - | - | - |
| 1777794300 | 9.44° C | 49% | 1017.6 hPa | 0 mm | - | - | - |
| 1777793996 | 9.44° C | 50% | 1017.6 hPa | 0 mm | - | - | - |
| 1777793693 | 9.44° C | 47% | 1017.7 hPa | 0 mm | - | - | - |
| 1777793391 | 8.89° C | 52% | 1017.5 hPa | 0 mm | - | - | - |
| 1777793088 | 10° C | 46% | 1017.7 hPa | 0 mm | - | - | - |
| 1777792785 | 10° C | 47% | 1017.7 hPa | 0 mm | - | - | - |
* Rain latest hour (hover to see other rain measurements)
** Current wind speed in m/s (hover to see current wind gust speed)